sensor_id;sensor_type;location;lat;lon;timestamp;P1;durP1;ratioP1;P2;durP2;ratioP2
34737;SDS011;39910;47.154;27.614;2022-07-23T00:02:25;6.50;;;6.20;;
34737;SDS011;39910;47.154;27.614;2022-07-23T00:04:51;6.40;;;6.10;;
34737;SDS011;39910;47.154;27.614;2022-07-23T00:07:16;6.60;;;6.30;;
34737;SDS011;39910;47.154;27.614;2022-07-23T00:09:42;6.40;;;6.10;;
34737;SDS011;39910;47.154;27.614;2022-07-23T00:12:07;6.10;;;5.90;;
34737;SDS011;39910;47.154;27.614;2022-07-23T00:14:33;6.45;;;6.15;;
34737;SDS011;39910;47.154;27.614;2022-07-23T00:16:59;6.57;;;6.28;;
34737;SDS011;39910;47.154;27.614;2022-07-23T00:19:24;6.75;;;6.45;;
34737;SDS011;39910;47.154;27.614;2022-07-23T00:21:50;6.63;;;6.32;;
34737;SDS011;39910;47.154;27.614;2022-07-23T00:24:15;6.50;;;6.20;;
34737;SDS011;39910;47.154;27.614;2022-07-23T00:26:41;6.40;;;6.10;;
34737;SDS011;39910;47.154;27.614;2022-07-23T00:29:06;6.28;;;6.00;;
34737;SDS011;39910;47.154;27.614;2022-07-23T00:31:32;6.38;;;6.07;;
34737;SDS011;39910;47.154;27.614;2022-07-23T00:33:57;6.18;;;5.97;;
34737;SDS011;39910;47.154;27.614;2022-07-23T00:36:26;6.60;;;6.30;;
34737;SDS011;39910;47.154;27.614;2022-07-23T00:38:52;6.32;;;6.03;;
34737;SDS011;39910;47.154;27.614;2022-07-23T00:41:17;6.50;;;6.20;;
34737;SDS011;39910;47.154;27.614;2022-07-23T00:43:43;6.20;;;6.00;;
34737;SDS011;39910;47.154;27.614;2022-07-23T00:46:08;6.50;;;6.20;;
34737;SDS011;39910;47.154;27.614;2022-07-23T00:48:34;6.68;;;6.38;;
34737;SDS011;39910;47.154;27.614;2022-07-23T00:50:59;6.50;;;6.20;;
34737;SDS011;39910;47.154;27.614;2022-07-23T00:53:25;6.65;;;6.35;;
34737;SDS011;39910;47.154;27.614;2022-07-23T00:55:50;6.50;;;6.20;;
34737;SDS011;39910;47.154;27.614;2022-07-23T00:58:17;6.60;;;6.30;;
34737;SDS011;39910;47.154;27.614;2022-07-23T01:00:44;6.57;;;6.28;;
34737;SDS011;39910;47.154;27.614;2022-07-23T01:03:10;6.45;;;6.15;;
34737;SDS011;39910;47.154;27.614;2022-07-23T01:05:36;6.50;;;6.20;;
34737;SDS011;39910;47.154;27.614;2022-07-23T01:08:02;6.40;;;6.10;;
34737;SDS011;39910;47.154;27.614;2022-07-23T01:10:27;6.60;;;6.30;;
34737;SDS011;39910;47.154;27.614;2022-07-23T01:12:55;6.40;;;6.10;;
34737;SDS011;39910;47.154;27.614;2022-07-23T01:15:22;7.00;;;6.70;;
34737;SDS011;39910;47.154;27.614;2022-07-23T01:17:47;6.38;;;6.07;;
34737;SDS011;39910;47.154;27.614;2022-07-23T01:20:13;6.20;;;6.00;;
34737;SDS011;39910;47.154;27.614;2022-07-23T01:22:38;6.10;;;5.90;;
34737;SDS011;39910;47.154;27.614;2022-07-23T01:25:04;6.18;;;5.95;;
34737;SDS011;39910;47.154;27.614;2022-07-23T01:27:30;6.70;;;6.40;;
34737;SDS011;39910;47.154;27.614;2022-07-23T01:29:56;6.50;;;6.20;;
34737;SDS011;39910;47.154;27.614;2022-07-23T01:32:24;6.60;;;6.30;;
34737;SDS011;39910;47.154;27.614;2022-07-23T01:34:50;6.70;;;6.40;;
34737;SDS011;39910;47.154;27.614;2022-07-23T01:37:15;6.45;;;6.15;;
34737;SDS011;39910;47.154;27.614;2022-07-23T01:39:40;6.45;;;6.15;;
34737;SDS011;39910;47.154;27.614;2022-07-23T01:42:06;6.68;;;6.38;;
34737;SDS011;39910;47.154;27.614;2022-07-23T01:44:31;6.55;;;6.25;;
34737;SDS011;39910;47.154;27.614;2022-07-23T01:46:57;6.50;;;6.20;;
34737;SDS011;39910;47.154;27.614;2022-07-23T01:49:23;6.50;;;6.20;;
34737;SDS011;39910;47.154;27.614;2022-07-23T01:51:48;6.50;;;6.20;;
34737;SDS011;39910;47.154;27.614;2022-07-23T01:54:26;6.45;;;6.15;;
34737;SDS011;39910;47.154;27.614;2022-07-23T01:56:53;6.70;;;6.40;;
34737;SDS011;39910;47.154;27.614;2022-07-23T01:59:18;6.47;;;6.18;;
34737;SDS011;39910;47.154;27.614;2022-07-23T02:01:44;6.70;;;6.40;;
34737;SDS011;39910;47.154;27.614;2022-07-23T02:04:10;6.80;;;6.50;;
34737;SDS011;39910;47.154;27.614;2022-07-23T02:06:35;6.70;;;6.40;;
34737;SDS011;39910;47.154;27.614;2022-07-23T02:09:01;6.70;;;6.40;;
34737;SDS011;39910;47.154;27.614;2022-07-23T02:11:26;6.75;;;6.45;;
34737;SDS011;39910;47.154;27.614;2022-07-23T02:13:52;6.45;;;6.15;;
34737;SDS011;39910;47.154;27.614;2022-07-23T02:16:17;6.80;;;6.50;;
34737;SDS011;39910;47.154;27.614;2022-07-23T02:18:42;6.43;;;6.13;;
34737;SDS011;39910;47.154;27.614;2022-07-23T02:21:08;6.70;;;6.40;;
34737;SDS011;39910;47.154;27.614;2022-07-23T02:23:33;6.50;;;6.20;;
34737;SDS011;39910;47.154;27.614;2022-07-23T02:25:59;6.57;;;6.28;;
34737;SDS011;39910;47.154;27.614;2022-07-23T02:28:24;6.60;;;6.30;;
34737;SDS011;39910;47.154;27.614;2022-07-23T02:30:50;6.60;;;6.30;;
34737;SDS011;39910;47.154;27.614;2022-07-23T02:33:15;6.40;;;6.10;;
34737;SDS011;39910;47.154;27.614;2022-07-23T02:35:41;6.50;;;6.20;;
34737;SDS011;39910;47.154;27.614;2022-07-23T02:38:06;6.13;;;5.93;;
34737;SDS011;39910;47.154;27.614;2022-07-23T02:40:32;6.55;;;6.25;;
34737;SDS011;39910;47.154;27.614;2022-07-23T02:42:57;6.40;;;6.10;;
34737;SDS011;39910;47.154;27.614;2022-07-23T02:45:23;6.25;;;6.03;;
34737;SDS011;39910;47.154;27.614;2022-07-23T02:47:48;6.40;;;6.10;;
34737;SDS011;39910;47.154;27.614;2022-07-23T02:50:14;6.50;;;6.20;;
34737;SDS011;39910;47.154;27.614;2022-07-23T02:52:39;6.30;;;6.05;;
34737;SDS011;39910;47.154;27.614;2022-07-23T02:55:05;6.40;;;6.10;;
34737;SDS011;39910;47.154;27.614;2022-07-23T02:57:31;6.50;;;6.20;;
34737;SDS011;39910;47.154;27.614;2022-07-23T02:59:57;6.68;;;6.38;;
34737;SDS011;39910;47.154;27.614;2022-07-23T03:02:23;6.50;;;6.20;;
34737;SDS011;39910;47.154;27.614;2022-07-23T03:04:48;6.57;;;6.28;;
34737;SDS011;39910;47.154;27.614;2022-07-23T03:07:15;6.43;;;6.13;;
34737;SDS011;39910;47.154;27.614;2022-07-23T03:09:42;6.60;;;6.30;;
34737;SDS011;39910;47.154;27.614;2022-07-23T03:12:07;6.68;;;6.38;;
34737;SDS011;39910;47.154;27.614;2022-07-23T03:14:33;6.82;;;6.53;;
34737;SDS011;39910;47.154;27.614;2022-07-23T03:16:58;7.00;;;6.70;;
34737;SDS011;39910;47.154;27.614;2022-07-23T03:19:25;6.70;;;6.40;;
34737;SDS011;39910;47.154;27.614;2022-07-23T03:21:51;6.43;;;6.13;;
34737;SDS011;39910;47.154;27.614;2022-07-23T03:24:16;6.78;;;6.47;;
34737;SDS011;39910;47.154;27.614;2022-07-23T03:26:45;6.63;;;6.32;;
34737;SDS011;39910;47.154;27.614;2022-07-23T03:29:10;6.78;;;6.47;;
34737;SDS011;39910;47.154;27.614;2022-07-23T03:31:37;6.57;;;6.28;;
34737;SDS011;39910;47.154;27.614;2022-07-23T03:34:02;6.82;;;6.53;;
34737;SDS011;39910;47.154;27.614;2022-07-23T03:36:28;6.60;;;6.30;;
34737;SDS011;39910;47.154;27.614;2022-07-23T03:38:53;6.65;;;6.35;;
34737;SDS011;39910;47.154;27.614;2022-07-23T03:41:19;6.80;;;6.50;;
34737;SDS011;39910;47.154;27.614;2022-07-23T03:43:45;6.53;;;6.22;;
34737;SDS011;39910;47.154;27.614;2022-07-23T03:46:11;6.57;;;6.28;;
34737;SDS011;39910;47.154;27.614;2022-07-23T03:48:37;6.80;;;6.50;;
34737;SDS011;39910;47.154;27.614;2022-07-23T03:51:03;6.55;;;6.25;;
34737;SDS011;39910;47.154;27.614;2022-07-23T03:53:29;6.80;;;6.50;;
34737;SDS011;39910;47.154;27.614;2022-07-23T03:55:54;6.70;;;6.40;;
34737;SDS011;39910;47.154;27.614;2022-07-23T03:58:20;6.70;;;6.40;;
34737;SDS011;39910;47.154;27.614;2022-07-23T04:00:45;6.90;;;6.60;;
34737;SDS011;39910;47.154;27.614;2022-07-23T04:03:11;6.78;;;6.47;;
34737;SDS011;39910;47.154;27.614;2022-07-23T04:05:36;7.00;;;6.70;;
34737;SDS011;39910;47.154;27.614;2022-07-23T04:08:02;6.80;;;6.50;;
34737;SDS011;39910;47.154;27.614;2022-07-23T04:10:28;6.85;;;6.55;;
34737;SDS011;39910;47.154;27.614;2022-07-23T04:12:53;6.80;;;6.50;;
34737;SDS011;39910;47.154;27.614;2022-07-23T04:15:19;6.70;;;6.40;;
34737;SDS011;39910;47.154;27.614;2022-07-23T04:17:44;7.00;;;6.70;;
34737;SDS011;39910;47.154;27.614;2022-07-23T04:20:11;6.90;;;6.60;;
34737;SDS011;39910;47.154;27.614;2022-07-23T04:22:38;6.97;;;6.68;;
34737;SDS011;39910;47.154;27.614;2022-07-23T04:25:04;7.13;;;6.82;;
34737;SDS011;39910;47.154;27.614;2022-07-23T04:27:30;6.90;;;6.60;;
34737;SDS011;39910;47.154;27.614;2022-07-23T04:29:58;6.97;;;6.68;;
34737;SDS011;39910;47.154;27.614;2022-07-23T04:32:24;7.00;;;6.70;;
34737;SDS011;39910;47.154;27.614;2022-07-23T04:34:49;7.07;;;6.78;;
34737;SDS011;39910;47.154;27.614;2022-07-23T04:37:15;7.15;;;6.85;;
34737;SDS011;39910;47.154;27.614;2022-07-23T04:39:40;7.10;;;6.80;;
34737;SDS011;39910;47.154;27.614;2022-07-23T04:42:06;7.07;;;6.78;;
34737;SDS011;39910;47.154;27.614;2022-07-23T04:44:31;6.80;;;6.50;;
34737;SDS011;39910;47.154;27.614;2022-07-23T04:46:57;7.00;;;6.70;;
34737;SDS011;39910;47.154;27.614;2022-07-23T04:49:22;6.70;;;6.40;;
34737;SDS011;39910;47.154;27.614;2022-07-23T04:51:48;6.70;;;6.40;;
34737;SDS011;39910;47.154;27.614;2022-07-23T04:54:13;6.90;;;6.60;;
34737;SDS011;39910;47.154;27.614;2022-07-23T04:56:39;6.90;;;6.60;;
34737;SDS011;39910;47.154;27.614;2022-07-23T04:59:04;6.72;;;6.43;;
34737;SDS011;39910;47.154;27.614;2022-07-23T05:01:30;7.00;;;6.70;;
34737;SDS011;39910;47.154;27.614;2022-07-23T05:03:55;7.00;;;6.70;;
34737;SDS011;39910;47.154;27.614;2022-07-23T05:06:21;7.10;;;6.80;;
34737;SDS011;39910;47.154;27.614;2022-07-23T05:08:46;7.20;;;6.90;;
34737;SDS011;39910;47.154;27.614;2022-07-23T05:11:12;7.28;;;6.97;;
34737;SDS011;39910;47.154;27.614;2022-07-23T05:13:37;7.10;;;6.80;;
34737;SDS011;39910;47.154;27.614;2022-07-23T05:16:03;7.20;;;6.90;;
34737;SDS011;39910;47.154;27.614;2022-07-23T05:18:28;7.00;;;6.70;;
34737;SDS011;39910;47.154;27.614;2022-07-23T05:20:54;6.97;;;6.68;;
34737;SDS011;39910;47.154;27.614;2022-07-23T05:23:19;7.07;;;6.78;;
34737;SDS011;39910;47.154;27.614;2022-07-23T05:25:45;7.00;;;6.70;;
34737;SDS011;39910;47.154;27.614;2022-07-23T05:28:11;7.15;;;6.85;;
34737;SDS011;39910;47.154;27.614;2022-07-23T05:30:36;7.15;;;6.85;;
34737;SDS011;39910;47.154;27.614;2022-07-23T05:33:02;6.93;;;6.63;;
34737;SDS011;39910;47.154;27.614;2022-07-23T05:35:27;7.03;;;6.72;;
34737;SDS011;39910;47.154;27.614;2022-07-23T05:37:53;7.07;;;6.78;;
34737;SDS011;39910;47.154;27.614;2022-07-23T05:40:18;6.97;;;6.68;;
34737;SDS011;39910;47.154;27.614;2022-07-23T05:42:44;7.30;;;7.00;;
34737;SDS011;39910;47.154;27.614;2022-07-23T05:45:09;7.20;;;6.90;;
34737;SDS011;39910;47.154;27.614;2022-07-23T05:47:45;7.07;;;6.78;;
34737;SDS011;39910;47.154;27.614;2022-07-23T05:50:12;7.47;;;7.18;;
34737;SDS011;39910;47.154;27.614;2022-07-23T05:52:39;7.28;;;6.97;;
34737;SDS011;39910;47.154;27.614;2022-07-23T05:55:05;7.35;;;7.05;;
34737;SDS011;39910;47.154;27.614;2022-07-23T05:57:31;7.18;;;6.88;;
34737;SDS011;39910;47.154;27.614;2022-07-23T05:59:57;7.00;;;6.70;;
34737;SDS011;39910;47.154;27.614;2022-07-23T06:02:22;7.30;;;7.00;;
34737;SDS011;39910;47.154;27.614;2022-07-23T06:04:48;7.07;;;6.78;;
34737;SDS011;39910;47.154;27.614;2022-07-23T06:07:13;7.07;;;6.78;;
34737;SDS011;39910;47.154;27.614;2022-07-23T06:09:39;7.13;;;6.82;;
34737;SDS011;39910;47.154;27.614;2022-07-23T06:12:05;7.03;;;6.72;;
34737;SDS011;39910;47.154;27.614;2022-07-23T06:14:30;7.28;;;6.97;;
34737;SDS011;39910;47.154;27.614;2022-07-23T06:16:56;7.00;;;6.70;;
34737;SDS011;39910;47.154;27.614;2022-07-23T06:19:21;7.10;;;6.80;;
34737;SDS011;39910;47.154;27.614;2022-07-23T06:21:47;7.10;;;6.80;;
34737;SDS011;39910;47.154;27.614;2022-07-23T06:24:13;7.40;;;7.10;;
34737;SDS011;39910;47.154;27.614;2022-07-23T06:26:38;7.40;;;7.10;;
34737;SDS011;39910;47.154;27.614;2022-07-23T06:29:04;7.10;;;6.80;;
34737;SDS011;39910;47.154;27.614;2022-07-23T06:31:29;7.35;;;7.05;;
34737;SDS011;39910;47.154;27.614;2022-07-23T06:33:55;7.55;;;7.25;;
34737;SDS011;39910;47.154;27.614;2022-07-23T06:36:20;7.40;;;7.10;;
34737;SDS011;39910;47.154;27.614;2022-07-23T06:38:46;7.20;;;6.90;;
34737;SDS011;39910;47.154;27.614;2022-07-23T06:41:11;7.32;;;7.03;;
34737;SDS011;39910;47.154;27.614;2022-07-23T06:43:36;7.20;;;6.90;;
34737;SDS011;39910;47.154;27.614;2022-07-23T06:46:03;7.47;;;7.18;;
34737;SDS011;39910;47.154;27.614;2022-07-23T06:48:29;7.35;;;7.05;;
34737;SDS011;39910;47.154;27.614;2022-07-23T06:50:54;7.50;;;7.20;;
34737;SDS011;39910;47.154;27.614;2022-07-23T06:53:20;7.45;;;7.15;;
34737;SDS011;39910;47.154;27.614;2022-07-23T06:55:46;7.45;;;7.15;;
34737;SDS011;39910;47.154;27.614;2022-07-23T06:58:11;7.30;;;7.00;;
34737;SDS011;39910;47.154;27.614;2022-07-23T07:00:38;7.32;;;7.03;;
34737;SDS011;39910;47.154;27.614;2022-07-23T07:03:04;7.20;;;6.90;;
34737;SDS011;39910;47.154;27.614;2022-07-23T07:05:30;7.10;;;6.80;;
34737;SDS011;39910;47.154;27.614;2022-07-23T07:07:55;7.28;;;6.97;;
34737;SDS011;39910;47.154;27.614;2022-07-23T07:10:21;7.10;;;6.80;;
34737;SDS011;39910;47.154;27.614;2022-07-23T07:12:47;7.20;;;6.90;;
34737;SDS011;39910;47.154;27.614;2022-07-23T07:15:12;7.13;;;6.82;;
34737;SDS011;39910;47.154;27.614;2022-07-23T07:17:38;7.30;;;7.00;;
34737;SDS011;39910;47.154;27.614;2022-07-23T07:20:04;7.50;;;7.20;;
34737;SDS011;39910;47.154;27.614;2022-07-23T07:22:30;7.45;;;7.15;;
34737;SDS011;39910;47.154;27.614;2022-07-23T07:24:56;7.20;;;6.90;;
34737;SDS011;39910;47.154;27.614;2022-07-23T07:27:21;7.32;;;7.03;;
34737;SDS011;39910;47.154;27.614;2022-07-23T07:29:47;7.30;;;7.00;;
34737;SDS011;39910;47.154;27.614;2022-07-23T07:32:12;7.38;;;7.07;;
34737;SDS011;39910;47.154;27.614;2022-07-23T07:34:38;7.20;;;6.90;;
34737;SDS011;39910;47.154;27.614;2022-07-23T07:37:03;7.30;;;7.00;;
34737;SDS011;39910;47.154;27.614;2022-07-23T07:39:29;7.22;;;6.93;;
34737;SDS011;39910;47.154;27.614;2022-07-23T07:41:54;7.07;;;6.78;;
34737;SDS011;39910;47.154;27.614;2022-07-23T07:44:20;7.28;;;6.97;;
34737;SDS011;39910;47.154;27.614;2022-07-23T07:46:45;7.20;;;6.90;;
34737;SDS011;39910;47.154;27.614;2022-07-23T07:49:11;7.20;;;6.90;;
34737;SDS011;39910;47.154;27.614;2022-07-23T07:51:36;7.30;;;7.00;;
34737;SDS011;39910;47.154;27.614;2022-07-23T07:54:02;6.80;;;6.50;;
34737;SDS011;39910;47.154;27.614;2022-07-23T07:56:27;6.80;;;6.50;;
34737;SDS011;39910;47.154;27.614;2022-07-23T07:58:53;6.90;;;6.60;;
34737;SDS011;39910;47.154;27.614;2022-07-23T08:01:18;6.80;;;6.50;;
34737;SDS011;39910;47.154;27.614;2022-07-23T08:03:45;6.63;;;6.32;;
34737;SDS011;39910;47.154;27.614;2022-07-23T08:06:11;6.55;;;6.25;;
34737;SDS011;39910;47.154;27.614;2022-07-23T08:08:36;6.63;;;6.32;;
34737;SDS011;39910;47.154;27.614;2022-07-23T08:11:02;6.80;;;6.50;;
34737;SDS011;39910;47.154;27.614;2022-07-23T08:13:27;6.65;;;6.35;;
34737;SDS011;39910;47.154;27.614;2022-07-23T08:15:53;6.60;;;6.30;;
34737;SDS011;39910;47.154;27.614;2022-07-23T08:18:19;6.65;;;6.35;;
34737;SDS011;39910;47.154;27.614;2022-07-23T08:20:45;6.80;;;6.50;;
34737;SDS011;39910;47.154;27.614;2022-07-23T08:23:11;6.90;;;6.60;;
34737;SDS011;39910;47.154;27.614;2022-07-23T08:25:40;6.97;;;6.68;;
34737;SDS011;39910;47.154;27.614;2022-07-23T08:28:08;6.78;;;6.47;;
34737;SDS011;39910;47.154;27.614;2022-07-23T08:30:35;6.53;;;6.22;;
34737;SDS011;39910;47.154;27.614;2022-07-23T08:33:02;6.90;;;6.60;;
34737;SDS011;39910;47.154;27.614;2022-07-23T08:35:31;6.80;;;6.50;;
34737;SDS011;39910;47.154;27.614;2022-07-23T08:38:02;6.70;;;6.40;;
34737;SDS011;39910;47.154;27.614;2022-07-23T08:40:33;6.70;;;6.40;;
34737;SDS011;39910;47.154;27.614;2022-07-23T08:43:02;6.72;;;6.43;;
34737;SDS011;39910;47.154;27.614;2022-07-23T08:45:37;6.80;;;6.50;;
34737;SDS011;39910;47.154;27.614;2022-07-23T08:48:05;6.70;;;6.40;;
34737;SDS011;39910;47.154;27.614;2022-07-23T08:50:34;6.65;;;6.35;;
34737;SDS011;39910;47.154;27.614;2022-07-23T08:53:01;6.60;;;6.30;;
34737;SDS011;39910;47.154;27.614;2022-07-23T08:55:29;6.60;;;6.30;;
34737;SDS011;39910;47.154;27.614;2022-07-23T08:57:55;6.55;;;6.25;;
34737;SDS011;39910;47.154;27.614;2022-07-23T09:00:21;6.60;;;6.30;;
34737;SDS011;39910;47.154;27.614;2022-07-23T09:02:47;6.70;;;6.40;;
34737;SDS011;39910;47.154;27.614;2022-07-23T09:05:14;6.70;;;6.40;;
34737;SDS011;39910;47.154;27.614;2022-07-23T09:10:29;6.55;;;6.25;;
34737;SDS011;39910;47.154;27.614;2022-07-23T09:13:10;6.55;;;6.25;;
34737;SDS011;39910;47.154;27.614;2022-07-23T09:15:49;6.32;;;6.05;;
34737;SDS011;39910;47.154;27.614;2022-07-23T09:18:16;6.40;;;6.10;;
34737;SDS011;39910;47.154;27.614;2022-07-23T09:20:43;6.50;;;6.20;;
34737;SDS011;39910;47.154;27.614;2022-07-23T09:23:08;6.70;;;6.40;;
34737;SDS011;39910;47.154;27.614;2022-07-23T09:25:34;6.60;;;6.30;;
34737;SDS011;39910;47.154;27.614;2022-07-23T09:28:00;6.63;;;6.32;;
34737;SDS011;39910;47.154;27.614;2022-07-23T09:30:29;6.68;;;6.38;;
34737;SDS011;39910;47.154;27.614;2022-07-23T09:33:12;6.70;;;6.40;;
34737;SDS011;39910;47.154;27.614;2022-07-23T09:35:47;6.40;;;6.10;;
34737;SDS011;39910;47.154;27.614;2022-07-23T09:38:20;6.40;;;6.10;;
34737;SDS011;39910;47.154;27.614;2022-07-23T09:43:34;6.80;;;6.50;;
34737;SDS011;39910;47.154;27.614;2022-07-23T09:46:19;6.78;;;6.47;;
34737;SDS011;39910;47.154;27.614;2022-07-23T09:48:47;6.70;;;6.40;;
34737;SDS011;39910;47.154;27.614;2022-07-23T09:51:13;6.70;;;6.40;;
34737;SDS011;39910;47.154;27.614;2022-07-23T09:53:42;6.57;;;6.28;;
34737;SDS011;39910;47.154;27.614;2022-07-23T09:56:07;6.50;;;6.20;;
34737;SDS011;39910;47.154;27.614;2022-07-23T09:58:34;6.65;;;6.35;;
34737;SDS011;39910;47.154;27.614;2022-07-23T10:01:09;6.70;;;6.40;;
34737;SDS011;39910;47.154;27.614;2022-07-23T10:03:35;6.53;;;6.22;;
34737;SDS011;39910;47.154;27.614;2022-07-23T10:06:01;6.50;;;6.20;;
34737;SDS011;39910;47.154;27.614;2022-07-23T10:08:27;6.60;;;6.30;;
34737;SDS011;39910;47.154;27.614;2022-07-23T10:10:53;6.75;;;6.45;;
34737;SDS011;39910;47.154;27.614;2022-07-23T10:13:19;6.60;;;6.30;;
34737;SDS011;39910;47.154;27.614;2022-07-23T10:15:54;6.60;;;6.30;;
34737;SDS011;39910;47.154;27.614;2022-07-23T10:18:20;6.60;;;6.30;;
34737;SDS011;39910;47.154;27.614;2022-07-23T10:20:46;6.38;;;6.07;;
34737;SDS011;39910;47.154;27.614;2022-07-23T10:25:59;6.70;;;6.40;;
34737;SDS011;39910;47.154;27.614;2022-07-23T10:29:10;6.70;;;6.40;;
34737;SDS011;39910;47.154;27.614;2022-07-23T10:32:04;6.70;;;6.40;;
34737;SDS011;39910;47.154;27.614;2022-07-23T10:37:28;6.60;;;6.30;;
34737;SDS011;39910;47.154;27.614;2022-07-23T10:42:37;6.53;;;6.22;;
34737;SDS011;39910;47.154;27.614;2022-07-23T10:45:25;6.50;;;6.20;;
34737;SDS011;39910;47.154;27.614;2022-07-23T10:47:53;6.70;;;6.40;;
34737;SDS011;39910;47.154;27.614;2022-07-23T10:50:26;6.63;;;6.32;;
34737;SDS011;39910;47.154;27.614;2022-07-23T10:57:56;6.60;;;6.30;;
34737;SDS011;39910;47.154;27.614;2022-07-23T11:00:23;6.70;;;6.40;;
34737;SDS011;39910;47.154;27.614;2022-07-23T11:02:51;6.50;;;6.20;;
34737;SDS011;39910;47.154;27.614;2022-07-23T11:05:41;6.47;;;6.18;;
34737;SDS011;39910;47.154;27.614;2022-07-23T11:08:15;6.60;;;6.30;;
34737;SDS011;39910;47.154;27.614;2022-07-23T11:13:32;6.45;;;6.15;;
34737;SDS011;39910;47.154;27.614;2022-07-23T11:16:16;6.60;;;6.30;;
34737;SDS011;39910;47.154;27.614;2022-07-23T11:24:10;6.70;;;6.40;;
34737;SDS011;39910;47.154;27.614;2022-07-23T11:26:55;6.60;;;6.30;;
34737;SDS011;39910;47.154;27.614;2022-07-23T11:34:42;6.60;;;6.30;;
34737;SDS011;39910;47.154;27.614;2022-07-23T11:37:34;6.45;;;6.15;;
34737;SDS011;39910;47.154;27.614;2022-07-23T11:39:59;6.50;;;6.20;;
34737;SDS011;39910;47.154;27.614;2022-07-23T11:42:26;6.32;;;6.03;;
34737;SDS011;39910;47.154;27.614;2022-07-23T11:44:52;6.43;;;6.13;;
34737;SDS011;39910;47.154;27.614;2022-07-23T11:47:22;6.57;;;6.28;;
34737;SDS011;39910;47.154;27.614;2022-07-23T11:49:55;6.60;;;6.30;;
34737;SDS011;39910;47.154;27.614;2022-07-23T11:52:23;6.50;;;6.20;;
34737;SDS011;39910;47.154;27.614;2022-07-23T11:54:50;6.70;;;6.40;;
34737;SDS011;39910;47.154;27.614;2022-07-23T11:57:21;6.78;;;6.47;;
34737;SDS011;39910;47.154;27.614;2022-07-23T11:59:51;6.70;;;6.40;;
34737;SDS011;39910;47.154;27.614;2022-07-23T12:02:20;6.60;;;6.30;;
34737;SDS011;39910;47.154;27.614;2022-07-23T12:04:48;6.60;;;6.30;;
34737;SDS011;39910;47.154;27.614;2022-07-23T12:10:03;6.50;;;6.20;;
34737;SDS011;39910;47.154;27.614;2022-07-23T12:12:43;6.60;;;6.30;;
34737;SDS011;39910;47.154;27.614;2022-07-23T12:15:15;6.70;;;6.40;;
34737;SDS011;39910;47.154;27.614;2022-07-23T12:17:43;6.68;;;6.38;;
34737;SDS011;39910;47.154;27.614;2022-07-23T12:20:12;6.65;;;6.35;;
34737;SDS011;39910;47.154;27.614;2022-07-23T12:22:41;6.38;;;6.07;;
34737;SDS011;39910;47.154;27.614;2022-07-23T12:25:17;6.50;;;6.20;;
34737;SDS011;39910;47.154;27.614;2022-07-23T12:27:45;6.20;;;6.00;;
34737;SDS011;39910;47.154;27.614;2022-07-23T12:32:46;6.60;;;6.30;;
34737;SDS011;39910;47.154;27.614;2022-07-23T12:35:13;6.60;;;6.30;;
34737;SDS011;39910;47.154;27.614;2022-07-23T12:37:39;6.70;;;6.40;;
34737;SDS011;39910;47.154;27.614;2022-07-23T12:40:26;6.60;;;6.30;;
34737;SDS011;39910;47.154;27.614;2022-07-23T12:45:28;6.68;;;6.38;;
34737;SDS011;39910;47.154;27.614;2022-07-23T12:50:53;6.65;;;6.35;;
34737;SDS011;39910;47.154;27.614;2022-07-23T12:56:08;6.88;;;6.57;;
34737;SDS011;39910;47.154;27.614;2022-07-23T12:58:52;6.60;;;6.30;;
34737;SDS011;39910;47.154;27.614;2022-07-23T13:06:35;6.70;;;6.40;;
34737;SDS011;39910;47.154;27.614;2022-07-23T13:09:06;6.60;;;6.30;;
34737;SDS011;39910;47.154;27.614;2022-07-23T13:11:32;6.63;;;6.32;;
34737;SDS011;39910;47.154;27.614;2022-07-23T13:13:58;6.60;;;6.30;;
34737;SDS011;39910;47.154;27.614;2022-07-23T13:16:25;6.68;;;6.38;;
34737;SDS011;39910;47.154;27.614;2022-07-23T13:18:52;6.75;;;6.45;;
34737;SDS011;39910;47.154;27.614;2022-07-23T13:21:17;6.70;;;6.40;;
34737;SDS011;39910;47.154;27.614;2022-07-23T13:23:43;6.90;;;6.60;;
34737;SDS011;39910;47.154;27.614;2022-07-23T13:26:08;6.78;;;6.47;;
34737;SDS011;39910;47.154;27.614;2022-07-23T13:28:34;6.70;;;6.40;;
34737;SDS011;39910;47.154;27.614;2022-07-23T13:31:00;6.78;;;6.47;;
34737;SDS011;39910;47.154;27.614;2022-07-23T13:33:25;6.78;;;6.47;;
34737;SDS011;39910;47.154;27.614;2022-07-23T13:35:51;6.53;;;6.22;;
34737;SDS011;39910;47.154;27.614;2022-07-23T13:38:19;6.60;;;6.30;;
34737;SDS011;39910;47.154;27.614;2022-07-23T13:40:46;6.55;;;6.25;;
34737;SDS011;39910;47.154;27.614;2022-07-23T13:43:15;6.40;;;6.10;;
34737;SDS011;39910;47.154;27.614;2022-07-23T13:45:43;6.20;;;6.00;;
34737;SDS011;39910;47.154;27.614;2022-07-23T13:48:10;6.50;;;6.20;;
34737;SDS011;39910;47.154;27.614;2022-07-23T13:50:37;6.47;;;6.18;;
34737;SDS011;39910;47.154;27.614;2022-07-23T13:53:07;6.50;;;6.20;;
34737;SDS011;39910;47.154;27.614;2022-07-23T13:55:37;6.20;;;6.00;;
34737;SDS011;39910;47.154;27.614;2022-07-23T13:58:05;6.40;;;6.10;;
34737;SDS011;39910;47.154;27.614;2022-07-23T14:00:31;6.55;;;6.25;;
34737;SDS011;39910;47.154;27.614;2022-07-23T14:02:59;6.68;;;6.38;;
34737;SDS011;39910;47.154;27.614;2022-07-23T14:05:25;6.60;;;6.30;;
34737;SDS011;39910;47.154;27.614;2022-07-23T14:07:51;6.50;;;6.20;;
34737;SDS011;39910;47.154;27.614;2022-07-23T14:10:18;6.78;;;6.47;;
34737;SDS011;39910;47.154;27.614;2022-07-23T14:12:45;6.40;;;6.10;;
34737;SDS011;39910;47.154;27.614;2022-07-23T14:15:11;6.85;;;6.55;;
34737;SDS011;39910;47.154;27.614;2022-07-23T14:17:38;6.50;;;6.20;;
34737;SDS011;39910;47.154;27.614;2022-07-23T14:20:05;6.65;;;6.35;;
34737;SDS011;39910;47.154;27.614;2022-07-23T14:22:32;6.70;;;6.40;;
34737;SDS011;39910;47.154;27.614;2022-07-23T14:24:58;6.55;;;6.25;;
34737;SDS011;39910;47.154;27.614;2022-07-23T14:27:24;6.60;;;6.30;;
34737;SDS011;39910;47.154;27.614;2022-07-23T14:29:51;6.38;;;6.10;;
34737;SDS011;39910;47.154;27.614;2022-07-23T14:32:17;6.50;;;6.20;;
34737;SDS011;39910;47.154;27.614;2022-07-23T14:34:44;6.40;;;6.10;;
34737;SDS011;39910;47.154;27.614;2022-07-23T14:37:10;6.50;;;6.20;;
34737;SDS011;39910;47.154;27.614;2022-07-23T14:39:36;6.43;;;6.13;;
34737;SDS011;39910;47.154;27.614;2022-07-23T14:42:03;6.40;;;6.10;;
34737;SDS011;39910;47.154;27.614;2022-07-23T14:44:29;6.50;;;6.20;;
34737;SDS011;39910;47.154;27.614;2022-07-23T14:46:54;6.60;;;6.30;;
34737;SDS011;39910;47.154;27.614;2022-07-23T14:49:20;6.45;;;6.15;;
34737;SDS011;39910;47.154;27.614;2022-07-23T14:51:46;6.60;;;6.30;;
34737;SDS011;39910;47.154;27.614;2022-07-23T14:54:11;6.53;;;6.22;;
34737;SDS011;39910;47.154;27.614;2022-07-23T14:56:39;6.50;;;6.20;;
34737;SDS011;39910;47.154;27.614;2022-07-23T14:59:05;6.50;;;6.20;;
34737;SDS011;39910;47.154;27.614;2022-07-23T15:01:31;6.75;;;6.45;;
34737;SDS011;39910;47.154;27.614;2022-07-23T15:03:57;6.60;;;6.30;;
34737;SDS011;39910;47.154;27.614;2022-07-23T15:06:22;6.55;;;6.25;;
34737;SDS011;39910;47.154;27.614;2022-07-23T15:08:48;6.40;;;6.10;;
34737;SDS011;39910;47.154;27.614;2022-07-23T15:11:13;6.38;;;6.10;;
34737;SDS011;39910;47.154;27.614;2022-07-23T15:13:39;6.50;;;6.20;;
34737;SDS011;39910;47.154;27.614;2022-07-23T15:16:05;6.25;;;6.00;;
34737;SDS011;39910;47.154;27.614;2022-07-23T15:18:31;6.43;;;6.13;;
34737;SDS011;39910;47.154;27.614;2022-07-23T15:20:58;6.47;;;6.18;;
34737;SDS011;39910;47.154;27.614;2022-07-23T15:23:24;6.60;;;6.30;;
34737;SDS011;39910;47.154;27.614;2022-07-23T15:25:49;6.20;;;6.00;;